sensor_id;sensor_type;location;lat;lon;timestamp;temperature;humidity
792;DHT22;379;49.022;12.148;2023-05-10T00:01:47;13.90;65.60
792;DHT22;379;49.022;12.148;2023-05-10T00:04:14;13.80;66.20
792;DHT22;379;49.022;12.148;2023-05-10T00:06:41;13.70;66.20
792;DHT22;379;49.022;12.148;2023-05-10T00:09:07;13.70;66.50
792;DHT22;379;49.022;12.148;2023-05-10T00:11:35;13.70;66.80
792;DHT22;379;49.022;12.148;2023-05-10T00:14:02;13.70;67.00
792;DHT22;379;49.022;12.148;2023-05-10T00:16:29;13.60;67.10
792;DHT22;379;49.022;12.148;2023-05-10T00:18:56;13.60;67.50
792;DHT22;379;49.022;12.148;2023-05-10T00:21:22;13.50;67.70
792;DHT22;379;49.022;12.148;2023-05-10T00:23:49;13.50;67.90
792;DHT22;379;49.022;12.148;2023-05-10T00:26:16;13.50;68.10
792;DHT22;379;49.022;12.148;2023-05-10T00:28:44;13.50;68.30
792;DHT22;379;49.022;12.148;2023-05-10T00:31:11;13.50;68.30
792;DHT22;379;49.022;12.148;2023-05-10T00:33:37;13.50;68.40
792;DHT22;379;49.022;12.148;2023-05-10T00:36:05;13.40;68.70
792;DHT22;379;49.022;12.148;2023-05-10T00:38:33;13.50;68.90
792;DHT22;379;49.022;12.148;2023-05-10T00:41:00;13.40;69.10
792;DHT22;379;49.022;12.148;2023-05-10T00:43:27;13.40;69.30
792;DHT22;379;49.022;12.148;2023-05-10T00:45:55;13.40;69.20
792;DHT22;379;49.022;12.148;2023-05-10T00:48:22;13.40;69.40
792;DHT22;379;49.022;12.148;2023-05-10T00:50:49;13.30;69.60
792;DHT22;379;49.022;12.148;2023-05-10T00:53:15;13.30;69.70
792;DHT22;379;49.022;12.148;2023-05-10T00:55:43;13.30;69.80
792;DHT22;379;49.022;12.148;2023-05-10T00:58:10;13.30;70.10
792;DHT22;379;49.022;12.148;2023-05-10T01:00:38;13.30;70.30
792;DHT22;379;49.022;12.148;2023-05-10T01:03:09;13.20;70.30
792;DHT22;379;49.022;12.148;2023-05-10T01:05:36;13.30;70.60
792;DHT22;379;49.022;12.148;2023-05-10T01:08:03;13.30;70.40
792;DHT22;379;49.022;12.148;2023-05-10T01:10:30;13.30;70.60
792;DHT22;379;49.022;12.148;2023-05-10T01:12:59;13.20;70.70
792;DHT22;379;49.022;12.148;2023-05-10T01:15:26;13.20;70.90
792;DHT22;379;49.022;12.148;2023-05-10T01:17:53;13.20;71.00
792;DHT22;379;49.022;12.148;2023-05-10T01:20:21;13.20;71.00
792;DHT22;379;49.022;12.148;2023-05-10T01:23:16;13.30;70.90
792;DHT22;379;49.022;12.148;2023-05-10T01:26:11;13.30;70.60
792;DHT22;379;49.022;12.148;2023-05-10T01:29:05;13.40;70.70
792;DHT22;379;49.022;12.148;2023-05-10T01:32:17;13.40;70.70
792;DHT22;379;49.022;12.148;2023-05-10T01:34:54;13.40;70.70
792;DHT22;379;49.022;12.148;2023-05-10T01:37:31;13.40;70.90
792;DHT22;379;49.022;12.148;2023-05-10T01:40:02;13.30;71.00
792;DHT22;379;49.022;12.148;2023-05-10T01:42:38;13.40;71.10
792;DHT22;379;49.022;12.148;2023-05-10T01:45:13;13.30;71.20
792;DHT22;379;49.022;12.148;2023-05-10T01:47:43;13.40;71.20
792;DHT22;379;49.022;12.148;2023-05-10T01:50:15;13.40;71.30
792;DHT22;379;49.022;12.148;2023-05-10T01:52:49;13.30;71.50
792;DHT22;379;49.022;12.148;2023-05-10T01:55:19;13.30;71.70
792;DHT22;379;49.022;12.148;2023-05-10T01:57:48;13.30;71.90
792;DHT22;379;49.022;12.148;2023-05-10T02:00:18;13.30;72.00
792;DHT22;379;49.022;12.148;2023-05-10T02:02:48;13.40;72.10
792;DHT22;379;49.022;12.148;2023-05-10T02:05:16;13.30;72.00
792;DHT22;379;49.022;12.148;2023-05-10T02:07:43;13.30;72.20
792;DHT22;379;49.022;12.148;2023-05-10T02:10:11;13.30;72.20
792;DHT22;379;49.022;12.148;2023-05-10T02:12:43;13.30;72.40
792;DHT22;379;49.022;12.148;2023-05-10T02:15:12;13.30;72.30
792;DHT22;379;49.022;12.148;2023-05-10T02:17:42;13.30;72.50
792;DHT22;379;49.022;12.148;2023-05-10T02:20:11;13.30;72.60
792;DHT22;379;49.022;12.148;2023-05-10T02:22:39;13.30;72.70
792;DHT22;379;49.022;12.148;2023-05-10T02:25:08;13.30;73.10
792;DHT22;379;49.022;12.148;2023-05-10T02:27:36;13.30;73.30
792;DHT22;379;49.022;12.148;2023-05-10T02:30:05;13.30;73.30
792;DHT22;379;49.022;12.148;2023-05-10T02:32:33;13.20;73.40
792;DHT22;379;49.022;12.148;2023-05-10T02:35:02;13.20;74.00
792;DHT22;379;49.022;12.148;2023-05-10T02:37:30;13.20;74.30
792;DHT22;379;49.022;12.148;2023-05-10T02:39:58;13.20;74.20
792;DHT22;379;49.022;12.148;2023-05-10T02:42:27;13.10;74.30
792;DHT22;379;49.022;12.148;2023-05-10T02:44:59;13.10;74.40
792;DHT22;379;49.022;12.148;2023-05-10T02:47:26;13.10;74.40
792;DHT22;379;49.022;12.148;2023-05-10T02:49:53;13.10;74.60
792;DHT22;379;49.022;12.148;2023-05-10T02:52:23;13.00;75.10
792;DHT22;379;49.022;12.148;2023-05-10T02:54:54;13.00;75.20
792;DHT22;379;49.022;12.148;2023-05-10T02:57:25;13.10;75.10
792;DHT22;379;49.022;12.148;2023-05-10T02:59:53;13.10;75.70
792;DHT22;379;49.022;12.148;2023-05-10T03:02:20;13.10;75.80
792;DHT22;379;49.022;12.148;2023-05-10T03:04:47;13.00;76.40
792;DHT22;379;49.022;12.148;2023-05-10T03:07:13;13.00;76.60
792;DHT22;379;49.022;12.148;2023-05-10T03:09:41;13.00;76.60
792;DHT22;379;49.022;12.148;2023-05-10T03:12:14;13.00;76.50
792;DHT22;379;49.022;12.148;2023-05-10T03:14:52;13.00;77.00
792;DHT22;379;49.022;12.148;2023-05-10T03:17:25;12.90;77.40
792;DHT22;379;49.022;12.148;2023-05-10T03:19:56;12.90;78.00
792;DHT22;379;49.022;12.148;2023-05-10T03:22:26;12.80;78.60
792;DHT22;379;49.022;12.148;2023-05-10T03:24:55;12.90;78.80
792;DHT22;379;49.022;12.148;2023-05-10T03:27:26;12.80;79.90
792;DHT22;379;49.022;12.148;2023-05-10T03:29:54;12.70;80.50
792;DHT22;379;49.022;12.148;2023-05-10T03:32:21;12.70;81.00
792;DHT22;379;49.022;12.148;2023-05-10T03:34:48;12.70;81.80
792;DHT22;379;49.022;12.148;2023-05-10T03:37:15;12.50;82.10
792;DHT22;379;49.022;12.148;2023-05-10T03:39:41;12.50;83.60
792;DHT22;379;49.022;12.148;2023-05-10T03:42:08;12.40;84.80
792;DHT22;379;49.022;12.148;2023-05-10T03:44:38;12.30;85.20
792;DHT22;379;49.022;12.148;2023-05-10T03:47:05;12.20;86.20
792;DHT22;379;49.022;12.148;2023-05-10T03:49:32;12.20;86.80
792;DHT22;379;49.022;12.148;2023-05-10T03:51:58;12.20;87.60
792;DHT22;379;49.022;12.148;2023-05-10T03:54:25;12.20;87.80
792;DHT22;379;49.022;12.148;2023-05-10T03:56:52;12.20;87.60
792;DHT22;379;49.022;12.148;2023-05-10T03:59:18;12.10;88.80
792;DHT22;379;49.022;12.148;2023-05-10T04:01:47;12.00;88.90
792;DHT22;379;49.022;12.148;2023-05-10T04:04:13;12.00;89.90
792;DHT22;379;49.022;12.148;2023-05-10T04:06:40;12.00;90.20
792;DHT22;379;49.022;12.148;2023-05-10T04:09:07;12.00;90.40
792;DHT22;379;49.022;12.148;2023-05-10T04:11:34;12.00;91.10
792;DHT22;379;49.022;12.148;2023-05-10T04:14:01;11.90;91.60
792;DHT22;379;49.022;12.148;2023-05-10T04:16:28;11.90;91.80
792;DHT22;379;49.022;12.148;2023-05-10T04:18:56;11.80;91.90
792;DHT22;379;49.022;12.148;2023-05-10T04:21:22;11.80;92.30
792;DHT22;379;49.022;12.148;2023-05-10T04:23:50;11.80;92.40
792;DHT22;379;49.022;12.148;2023-05-10T04:26:16;11.80;92.90
792;DHT22;379;49.022;12.148;2023-05-10T04:28:43;11.90;93.10
792;DHT22;379;49.022;12.148;2023-05-10T04:31:10;11.90;93.30
792;DHT22;379;49.022;12.148;2023-05-10T04:33:37;11.90;93.50
792;DHT22;379;49.022;12.148;2023-05-10T04:36:06;11.80;93.80
792;DHT22;379;49.022;12.148;2023-05-10T04:38:33;11.80;93.80
792;DHT22;379;49.022;12.148;2023-05-10T04:41:06;11.90;94.30
792;DHT22;379;49.022;12.148;2023-05-10T04:43:33;11.80;94.70
792;DHT22;379;49.022;12.148;2023-05-10T04:46:00;11.70;95.20
792;DHT22;379;49.022;12.148;2023-05-10T04:48:27;11.70;95.20
792;DHT22;379;49.022;12.148;2023-05-10T04:50:54;11.70;95.00
792;DHT22;379;49.022;12.148;2023-05-10T04:53:22;11.60;95.60
792;DHT22;379;49.022;12.148;2023-05-10T04:55:49;11.50;96.10
792;DHT22;379;49.022;12.148;2023-05-10T04:58:16;11.40;97.20
792;DHT22;379;49.022;12.148;2023-05-10T05:00:42;11.30;98.30
792;DHT22;379;49.022;12.148;2023-05-10T05:03:09;11.10;99.50
792;DHT22;379;49.022;12.148;2023-05-10T05:05:36;11.10;99.90
792;DHT22;379;49.022;12.148;2023-05-10T05:08:03;11.00;99.90
792;DHT22;379;49.022;12.148;2023-05-10T05:10:31;10.90;99.90
792;DHT22;379;49.022;12.148;2023-05-10T05:12:58;10.90;99.90
792;DHT22;379;49.022;12.148;2023-05-10T05:15:25;10.90;99.90
792;DHT22;379;49.022;12.148;2023-05-10T05:17:51;10.90;99.90
792;DHT22;379;49.022;12.148;2023-05-10T05:20:18;10.90;99.90
792;DHT22;379;49.022;12.148;2023-05-10T05:22:45;10.90;99.90
792;DHT22;379;49.022;12.148;2023-05-10T05:25:12;10.90;99.90
792;DHT22;379;49.022;12.148;2023-05-10T05:27:40;10.90;99.90
792;DHT22;379;49.022;12.148;2023-05-10T05:30:08;10.90;99.90
792;DHT22;379;49.022;12.148;2023-05-10T05:32:35;10.90;99.90
792;DHT22;379;49.022;12.148;2023-05-10T05:35:02;11.00;99.90
792;DHT22;379;49.022;12.148;2023-05-10T05:37:29;11.00;99.90
792;DHT22;379;49.022;12.148;2023-05-10T05:39:55;10.90;99.90
792;DHT22;379;49.022;12.148;2023-05-10T05:42:22;10.90;99.90
792;DHT22;379;49.022;12.148;2023-05-10T05:44:50;10.80;99.90
792;DHT22;379;49.022;12.148;2023-05-10T05:47:17;10.90;99.90
792;DHT22;379;49.022;12.148;2023-05-10T05:49:43;10.90;99.90
792;DHT22;379;49.022;12.148;2023-05-10T05:52:11;11.00;99.90
792;DHT22;379;49.022;12.148;2023-05-10T05:54:38;11.00;99.90
792;DHT22;379;49.022;12.148;2023-05-10T05:57:05;11.10;99.90
792;DHT22;379;49.022;12.148;2023-05-10T05:59:32;11.20;99.90
792;DHT22;379;49.022;12.148;2023-05-10T06:02:01;11.20;99.90
792;DHT22;379;49.022;12.148;2023-05-10T06:04:27;11.30;99.90
792;DHT22;379;49.022;12.148;2023-05-10T06:06:54;11.30;99.90
792;DHT22;379;49.022;12.148;2023-05-10T06:09:21;11.40;99.90
792;DHT22;379;49.022;12.148;2023-05-10T06:11:49;11.40;99.90
792;DHT22;379;49.022;12.148;2023-05-10T06:14:15;11.40;99.90
792;DHT22;379;49.022;12.148;2023-05-10T06:16:42;11.50;99.90
792;DHT22;379;49.022;12.148;2023-05-10T06:19:10;11.60;99.90
792;DHT22;379;49.022;12.148;2023-05-10T06:21:37;11.70;99.90
792;DHT22;379;49.022;12.148;2023-05-10T06:24:04;11.80;99.90
792;DHT22;379;49.022;12.148;2023-05-10T06:26:32;11.90;99.90
792;DHT22;379;49.022;12.148;2023-05-10T06:28:58;11.90;99.90
792;DHT22;379;49.022;12.148;2023-05-10T06:31:25;12.00;99.90
792;DHT22;379;49.022;12.148;2023-05-10T06:33:52;12.00;99.90
792;DHT22;379;49.022;12.148;2023-05-10T06:36:20;12.00;99.90
792;DHT22;379;49.022;12.148;2023-05-10T06:38:47;12.10;99.90
792;DHT22;379;49.022;12.148;2023-05-10T06:41:14;12.10;99.90
792;DHT22;379;49.022;12.148;2023-05-10T06:43:40;12.10;99.90
792;DHT22;379;49.022;12.148;2023-05-10T06:46:08;12.20;99.90
792;DHT22;379;49.022;12.148;2023-05-10T06:48:35;12.20;99.90
792;DHT22;379;49.022;12.148;2023-05-10T06:51:02;12.30;99.90
792;DHT22;379;49.022;12.148;2023-05-10T06:53:30;12.30;99.90
792;DHT22;379;49.022;12.148;2023-05-10T06:55:56;12.30;99.90
792;DHT22;379;49.022;12.148;2023-05-10T06:58:23;12.50;99.90
792;DHT22;379;49.022;12.148;2023-05-10T07:00:50;12.50;99.90
792;DHT22;379;49.022;12.148;2023-05-10T07:03:17;12.50;99.90
792;DHT22;379;49.022;12.148;2023-05-10T07:05:43;12.50;99.90
792;DHT22;379;49.022;12.148;2023-05-10T07:08:10;12.50;99.90
792;DHT22;379;49.022;12.148;2023-05-10T07:10:38;12.50;99.90
792;DHT22;379;49.022;12.148;2023-05-10T07:13:05;12.40;99.90
792;DHT22;379;49.022;12.148;2023-05-10T07:15:31;12.40;99.90
792;DHT22;379;49.022;12.148;2023-05-10T07:17:58;12.40;99.90
792;DHT22;379;49.022;12.148;2023-05-10T07:20:25;12.50;99.90
792;DHT22;379;49.022;12.148;2023-05-10T07:22:52;12.60;99.90
792;DHT22;379;49.022;12.148;2023-05-10T07:25:19;12.70;99.90
792;DHT22;379;49.022;12.148;2023-05-10T07:27:47;12.70;99.90
792;DHT22;379;49.022;12.148;2023-05-10T07:30:14;12.70;99.90
792;DHT22;379;49.022;12.148;2023-05-10T07:32:41;12.50;99.90
792;DHT22;379;49.022;12.148;2023-05-10T07:35:08;12.50;99.90
792;DHT22;379;49.022;12.148;2023-05-10T07:37:35;12.60;99.90
792;DHT22;379;49.022;12.148;2023-05-10T07:40:02;12.90;99.90
792;DHT22;379;49.022;12.148;2023-05-10T07:42:29;13.20;99.90
792;DHT22;379;49.022;12.148;2023-05-10T07:44:57;13.60;99.90
792;DHT22;379;49.022;12.148;2023-05-10T07:47:23;14.10;99.90
792;DHT22;379;49.022;12.148;2023-05-10T07:49:50;14.50;99.90
792;DHT22;379;49.022;12.148;2023-05-10T07:52:17;14.80;99.90
792;DHT22;379;49.022;12.148;2023-05-10T07:54:44;14.90;99.90
792;DHT22;379;49.022;12.148;2023-05-10T07:57:11;15.00;99.90
792;DHT22;379;49.022;12.148;2023-05-10T07:59:40;15.10;99.90
792;DHT22;379;49.022;12.148;2023-05-10T08:02:08;15.30;99.90
792;DHT22;379;49.022;12.148;2023-05-10T08:04:34;15.50;99.90
792;DHT22;379;49.022;12.148;2023-05-10T08:07:01;15.80;99.90
792;DHT22;379;49.022;12.148;2023-05-10T08:09:28;15.90;99.90
792;DHT22;379;49.022;12.148;2023-05-10T08:11:54;16.10;99.90
792;DHT22;379;49.022;12.148;2023-05-10T08:14:21;16.20;99.90
792;DHT22;379;49.022;12.148;2023-05-10T08:16:48;16.40;99.90
792;DHT22;379;49.022;12.148;2023-05-10T08:19:16;16.30;99.90
792;DHT22;379;49.022;12.148;2023-05-10T08:21:44;16.20;99.90
792;DHT22;379;49.022;12.148;2023-05-10T08:24:11;16.00;99.90
792;DHT22;379;49.022;12.148;2023-05-10T08:26:38;15.90;99.90
792;DHT22;379;49.022;12.148;2023-05-10T08:29:05;15.80;99.90
792;DHT22;379;49.022;12.148;2023-05-10T08:31:32;16.00;99.90
792;DHT22;379;49.022;12.148;2023-05-10T08:33:58;16.30;99.90
792;DHT22;379;49.022;12.148;2023-05-10T08:36:27;16.50;99.90
792;DHT22;379;49.022;12.148;2023-05-10T08:38:54;16.70;99.90
792;DHT22;379;49.022;12.148;2023-05-10T08:41:21;17.10;99.90
792;DHT22;379;49.022;12.148;2023-05-10T08:43:50;17.40;99.90
792;DHT22;379;49.022;12.148;2023-05-10T08:46:18;17.50;98.70
792;DHT22;379;49.022;12.148;2023-05-10T08:48:46;17.70;98.10
792;DHT22;379;49.022;12.148;2023-05-10T08:51:14;17.70;97.20
792;DHT22;379;49.022;12.148;2023-05-10T08:53:43;17.70;95.90
792;DHT22;379;49.022;12.148;2023-05-10T08:56:10;17.90;96.20
792;DHT22;379;49.022;12.148;2023-05-10T08:58:38;18.30;96.50
792;DHT22;379;49.022;12.148;2023-05-10T09:01:05;18.70;95.20
792;DHT22;379;49.022;12.148;2023-05-10T09:03:31;19.00;93.60
792;DHT22;379;49.022;12.148;2023-05-10T09:05:59;19.30;94.00
792;DHT22;379;49.022;12.148;2023-05-10T09:08:26;19.50;91.60
792;DHT22;379;49.022;12.148;2023-05-10T09:10:54;19.60;91.00
792;DHT22;379;49.022;12.148;2023-05-10T09:13:22;19.60;91.80
792;DHT22;379;49.022;12.148;2023-05-10T09:15:49;19.60;92.60
792;DHT22;379;49.022;12.148;2023-05-10T09:18:16;19.60;92.80
792;DHT22;379;49.022;12.148;2023-05-10T09:20:43;19.60;93.00
792;DHT22;379;49.022;12.148;2023-05-10T09:23:10;19.60;93.30
792;DHT22;379;49.022;12.148;2023-05-10T09:25:37;19.60;94.00
792;DHT22;379;49.022;12.148;2023-05-10T09:28:08;19.80;92.60
792;DHT22;379;49.022;12.148;2023-05-10T09:30:35;20.00;92.20
792;DHT22;379;49.022;12.148;2023-05-10T09:33:02;20.30;92.20
792;DHT22;379;49.022;12.148;2023-05-10T09:35:30;20.60;91.10
792;DHT22;379;49.022;12.148;2023-05-10T09:37:59;20.70;88.20
792;DHT22;379;49.022;12.148;2023-05-10T09:40:27;20.60;88.90
792;DHT22;379;49.022;12.148;2023-05-10T09:42:55;20.30;90.10
792;DHT22;379;49.022;12.148;2023-05-10T09:45:24;20.00;90.30
792;DHT22;379;49.022;12.148;2023-05-10T09:47:52;19.60;89.50
792;DHT22;379;49.022;12.148;2023-05-10T09:50:20;19.10;89.30
792;DHT22;379;49.022;12.148;2023-05-10T09:52:48;18.70;90.30
792;DHT22;379;49.022;12.148;2023-05-10T09:55:16;18.40;90.60
792;DHT22;379;49.022;12.148;2023-05-10T09:57:43;18.20;90.90
792;DHT22;379;49.022;12.148;2023-05-10T10:00:10;18.10;91.40
792;DHT22;379;49.022;12.148;2023-05-10T10:02:45;18.00;91.60
792;DHT22;379;49.022;12.148;2023-05-10T10:05:12;18.10;91.00
792;DHT22;379;49.022;12.148;2023-05-10T10:07:39;18.10;90.10
792;DHT22;379;49.022;12.148;2023-05-10T10:10:07;18.20;90.60
792;DHT22;379;49.022;12.148;2023-05-10T10:12:36;18.60;90.50
792;DHT22;379;49.022;12.148;2023-05-10T10:15:04;18.90;90.20
792;DHT22;379;49.022;12.148;2023-05-10T10:17:32;19.10;87.50
792;DHT22;379;49.022;12.148;2023-05-10T10:20:04;19.10;85.80
792;DHT22;379;49.022;12.148;2023-05-10T10:22:31;19.20;82.70
792;DHT22;379;49.022;12.148;2023-05-10T10:24:58;19.20;85.40
792;DHT22;379;49.022;12.148;2023-05-10T10:27:32;19.50;85.60
792;DHT22;379;49.022;12.148;2023-05-10T10:30:06;19.60;84.60
792;DHT22;379;49.022;12.148;2023-05-10T10:32:47;19.70;84.00
792;DHT22;379;49.022;12.148;2023-05-10T10:35:19;19.90;84.80
792;DHT22;379;49.022;12.148;2023-05-10T10:37:47;20.00;81.80
792;DHT22;379;49.022;12.148;2023-05-10T10:40:26;20.20;79.10
792;DHT22;379;49.022;12.148;2023-05-10T10:42:54;20.60;80.60
792;DHT22;379;49.022;12.148;2023-05-10T10:45:22;21.10;80.50
792;DHT22;379;49.022;12.148;2023-05-10T10:47:54;21.40;78.20
792;DHT22;379;49.022;12.148;2023-05-10T10:50:45;21.30;72.10
792;DHT22;379;49.022;12.148;2023-05-10T10:53:12;21.10;71.30
792;DHT22;379;49.022;12.148;2023-05-10T10:55:46;20.90;70.50
792;DHT22;379;49.022;12.148;2023-05-10T10:58:29;20.70;69.20
792;DHT22;379;49.022;12.148;2023-05-10T11:01:12;20.60;67.20
792;DHT22;379;49.022;12.148;2023-05-10T11:03:39;20.40;68.10
792;DHT22;379;49.022;12.148;2023-05-10T11:06:07;20.30;68.50
792;DHT22;379;49.022;12.148;2023-05-10T11:08:41;20.50;68.50
792;DHT22;379;49.022;12.148;2023-05-10T11:11:08;20.60;67.00
792;DHT22;379;49.022;12.148;2023-05-10T11:13:38;20.70;66.50
792;DHT22;379;49.022;12.148;2023-05-10T11:16:16;20.60;66.20
792;DHT22;379;49.022;12.148;2023-05-10T11:19:01;20.60;64.40
792;DHT22;379;49.022;12.148;2023-05-10T11:21:29;20.60;66.70
792;DHT22;379;49.022;12.148;2023-05-10T11:23:57;20.70;66.50
792;DHT22;379;49.022;12.148;2023-05-10T11:26:25;20.60;64.70
792;DHT22;379;49.022;12.148;2023-05-10T11:28:53;20.70;66.40
792;DHT22;379;49.022;12.148;2023-05-10T11:31:22;21.00;66.40
792;DHT22;379;49.022;12.148;2023-05-10T11:33:52;21.30;64.90
792;DHT22;379;49.022;12.148;2023-05-10T11:36:21;21.60;64.50
792;DHT22;379;49.022;12.148;2023-05-10T11:38:49;21.80;65.20
792;DHT22;379;49.022;12.148;2023-05-10T11:41:17;21.80;64.20
792;DHT22;379;49.022;12.148;2023-05-10T11:43:48;21.60;65.00
792;DHT22;379;49.022;12.148;2023-05-10T11:46:17;21.50;64.00
792;DHT22;379;49.022;12.148;2023-05-10T11:48:46;21.50;64.60
792;DHT22;379;49.022;12.148;2023-05-10T11:51:13;21.40;63.40
792;DHT22;379;49.022;12.148;2023-05-10T11:53:40;21.10;64.90
792;DHT22;379;49.022;12.148;2023-05-10T11:56:09;20.60;63.60
792;DHT22;379;49.022;12.148;2023-05-10T11:58:37;20.00;64.70
792;DHT22;379;49.022;12.148;2023-05-10T12:01:05;19.60;65.80
792;DHT22;379;49.022;12.148;2023-05-10T12:03:33;19.30;66.20
792;DHT22;379;49.022;12.148;2023-05-10T12:06:01;19.20;66.90
792;DHT22;379;49.022;12.148;2023-05-10T12:08:29;19.60;68.80
792;DHT22;379;49.022;12.148;2023-05-10T12:11:05;20.10;68.80
792;DHT22;379;49.022;12.148;2023-05-10T12:13:37;20.80;68.00
792;DHT22;379;49.022;12.148;2023-05-10T12:16:13;21.30;64.40
792;DHT22;379;49.022;12.148;2023-05-10T12:18:40;21.10;61.90
792;DHT22;379;49.022;12.148;2023-05-10T12:21:09;21.00;63.00
792;DHT22;379;49.022;12.148;2023-05-10T12:23:36;21.00;63.90
792;DHT22;379;49.022;12.148;2023-05-10T12:26:04;21.00;62.90
792;DHT22;379;49.022;12.148;2023-05-10T12:28:32;21.00;63.30
792;DHT22;379;49.022;12.148;2023-05-10T12:31:00;21.00;64.50
792;DHT22;379;49.022;12.148;2023-05-10T12:33:27;21.10;63.60
792;DHT22;379;49.022;12.148;2023-05-10T12:36:02;21.10;62.50
792;DHT22;379;49.022;12.148;2023-05-10T12:38:31;20.90;62.80
792;DHT22;379;49.022;12.148;2023-05-10T12:41:00;20.50;64.00
792;DHT22;379;49.022;12.148;2023-05-10T12:43:27;19.80;66.90
792;DHT22;379;49.022;12.148;2023-05-10T12:45:55;18.50;70.30
792;DHT22;379;49.022;12.148;2023-05-10T12:48:22;17.70;72.60
792;DHT22;379;49.022;12.148;2023-05-10T12:50:49;17.10;75.20
792;DHT22;379;49.022;12.148;2023-05-10T12:53:16;17.00;77.50
792;DHT22;379;49.022;12.148;2023-05-10T12:55:43;17.00;77.70
792;DHT22;379;49.022;12.148;2023-05-10T12:58:10;17.30;77.50
792;DHT22;379;49.022;12.148;2023-05-10T13:00:36;17.60;76.50
792;DHT22;379;49.022;12.148;2023-05-10T13:03:05;17.90;75.00
792;DHT22;379;49.022;12.148;2023-05-10T13:05:32;18.00;70.60
792;DHT22;379;49.022;12.148;2023-05-10T13:07:59;18.10;70.00
792;DHT22;379;49.022;12.148;2023-05-10T13:10:26;18.10;69.30
792;DHT22;379;49.022;12.148;2023-05-10T13:12:52;18.10;69.20
792;DHT22;379;49.022;12.148;2023-05-10T13:15:19;18.10;69.80
792;DHT22;379;49.022;12.148;2023-05-10T13:17:46;18.00;70.40
792;DHT22;379;49.022;12.148;2023-05-10T13:20:14;18.00;71.40
792;DHT22;379;49.022;12.148;2023-05-10T13:22:41;17.90;72.00
792;DHT22;379;49.022;12.148;2023-05-10T13:25:09;17.80;72.00
792;DHT22;379;49.022;12.148;2023-05-10T13:27:36;17.80;71.80
792;DHT22;379;49.022;12.148;2023-05-10T13:30:03;17.60;72.80
792;DHT22;379;49.022;12.148;2023-05-10T13:32:30;17.50;73.10
792;DHT22;379;49.022;12.148;2023-05-10T13:34:57;17.30;73.90
792;DHT22;379;49.022;12.148;2023-05-10T13:37:25;17.20;74.20
792;DHT22;379;49.022;12.148;2023-05-10T13:39:51;17.10;74.80
792;DHT22;379;49.022;12.148;2023-05-10T13:42:18;17.10;75.50
792;DHT22;379;49.022;12.148;2023-05-10T13:44:45;17.20;75.70
792;DHT22;379;49.022;12.148;2023-05-10T13:47:11;17.00;75.20
792;DHT22;379;49.022;12.148;2023-05-10T13:49:38;16.90;76.40
792;DHT22;379;49.022;12.148;2023-05-10T13:52:05;16.80;76.60
792;DHT22;379;49.022;12.148;2023-05-10T13:54:33;16.80;76.30
792;DHT22;379;49.022;12.148;2023-05-10T13:57:01;16.90;76.50
792;DHT22;379;49.022;12.148;2023-05-10T13:59:28;17.00;76.30
792;DHT22;379;49.022;12.148;2023-05-10T14:01:57;17.00;76.50
792;DHT22;379;49.022;12.148;2023-05-10T14:04:24;17.10;77.00
792;DHT22;379;49.022;12.148;2023-05-10T14:06:50;17.00;76.50
792;DHT22;379;49.022;12.148;2023-05-10T14:09:18;16.90;77.40
792;DHT22;379;49.022;12.148;2023-05-10T14:11:46;16.90;78.00
792;DHT22;379;49.022;12.148;2023-05-10T14:14:13;16.80;77.80
792;DHT22;379;49.022;12.148;2023-05-10T14:16:42;16.70;78.90
792;DHT22;379;49.022;12.148;2023-05-10T14:19:09;16.60;79.70
792;DHT22;379;49.022;12.148;2023-05-10T14:21:36;16.60;82.30
792;DHT22;379;49.022;12.148;2023-05-10T14:24:03;16.50;83.00
792;DHT22;379;49.022;12.148;2023-05-10T14:26:29;16.50;84.40
792;DHT22;379;49.022;12.148;2023-05-10T14:28:58;16.40;85.10
792;DHT22;379;49.022;12.148;2023-05-10T14:31:25;16.50;85.50
792;DHT22;379;49.022;12.148;2023-05-10T14:33:52;16.40;85.40
792;DHT22;379;49.022;12.148;2023-05-10T14:36:19;16.50;85.30
792;DHT22;379;49.022;12.148;2023-05-10T14:38:46;16.50;85.80
792;DHT22;379;49.022;12.148;2023-05-10T14:41:12;16.50;86.10
792;DHT22;379;49.022;12.148;2023-05-10T14:43:40;16.50;86.50
792;DHT22;379;49.022;12.148;2023-05-10T14:46:08;16.50;86.70
792;DHT22;379;49.022;12.148;2023-05-10T14:48:35;16.50;87.10
792;DHT22;379;49.022;12.148;2023-05-10T14:51:02;16.60;88.00
792;DHT22;379;49.022;12.148;2023-05-10T14:53:29;16.50;87.20
792;DHT22;379;49.022;12.148;2023-05-10T14:55:56;16.40;87.80
792;DHT22;379;49.022;12.148;2023-05-10T14:58:22;16.40;88.80
792;DHT22;379;49.022;12.148;2023-05-10T15:00:49;16.40;89.80
792;DHT22;379;49.022;12.148;2023-05-10T15:03:17;16.40;90.20
792;DHT22;379;49.022;12.148;2023-05-10T15:05:44;16.30;90.40
792;DHT22;379;49.022;12.148;2023-05-10T15:08:11;16.10;90.40
792;DHT22;379;49.022;12.148;2023-05-10T15:10:38;15.90;90.50
792;DHT22;379;49.022;12.148;2023-05-10T15:13:04;15.70;90.80
792;DHT22;379;49.022;12.148;2023-05-10T15:15:31;15.60;91.30
792;DHT22;379;49.022;12.148;2023-05-10T15:17:58;15.50;91.90
792;DHT22;379;49.022;12.148;2023-05-10T15:20:26;15.50;92.00
792;DHT22;379;49.022;12.148;2023-05-10T15:22:53;15.50;92.30
792;DHT22;379;49.022;12.148;2023-05-10T15:25:20;15.50;92.50
792;DHT22;379;49.022;12.148;2023-05-10T15:27:46;15.50;92.80
792;DHT22;379;49.022;12.148;2023-05-10T15:30:14;15.50;92.90
792;DHT22;379;49.022;12.148;2023-05-10T15:32:40;15.60;93.00
792;DHT22;379;49.022;12.148;2023-05-10T15:35:08;15.60;93.80
792;DHT22;379;49.022;12.148;2023-05-10T15:37:37;15.50;94.10
792;DHT22;379;49.022;12.148;2023-05-10T15:40:05;15.40;94.70
792;DHT22;379;49.022;12.148;2023-05-10T15:42:32;15.30;95.10
792;DHT22;379;49.022;12.148;2023-05-10T15:44:59;15.30;95.70
792;DHT22;379;49.022;12.148;2023-05-10T15:47:26;15.30;96.20
792;DHT22;379;49.022;12.148;2023-05-10T15:49:53;15.40;96.80
792;DHT22;379;49.022;12.148;2023-05-10T15:52:20;15.50;97.10
792;DHT22;379;49.022;12.148;2023-05-10T15:54:49;15.50;97.20
792;DHT22;379;49.022;12.148;2023-05-10T15:57:16;15.50;97.60
792;DHT22;379;49.022;12.148;2023-05-10T15:59:43;15.60;97.90
792;DHT22;379;49.022;12.148;2023-05-10T16:02:10;15.50;98.10
792;DHT22;379;49.022;12.148;2023-05-10T16:04:37;15.40;98.20
792;DHT22;379;49.022;12.148;2023-05-10T16:07:03;15.30;98.40
792;DHT22;379;49.022;12.148;2023-05-10T16:09:30;15.20;98.60
792;DHT22;379;49.022;12.148;2023-05-10T16:11:58;15.20;99.10
792;DHT22;379;49.022;12.148;2023-05-10T16:14:26;15.10;99.50
792;DHT22;379;49.022;12.148;2023-05-10T16:16:53;15.10;99.90
792;DHT22;379;49.022;12.148;2023-05-10T16:19:20;15.20;99.90
792;DHT22;379;49.022;12.148;2023-05-10T16:21:47;15.20;99.90
792;DHT22;379;49.022;12.148;2023-05-10T16:24:14;15.10;99.90